createdAt,value
2018-12-12T00:00:22.121Z,3.90
2018-12-12T00:02:53.788Z,4.10
2018-12-12T00:05:30.368Z,4.20
2018-12-12T00:08:00.069Z,4.20
2018-12-12T00:10:34.738Z,4.00
2018-12-12T00:13:04.388Z,3.80
2018-12-12T00:15:34.711Z,3.70
2018-12-12T00:18:09.516Z,3.70
2018-12-12T00:20:44.095Z,3.70
2018-12-12T00:23:13.865Z,3.70
2018-12-12T00:25:43.598Z,3.80
2018-12-12T00:28:13.242Z,3.90
2018-12-12T00:30:42.914Z,3.90
2018-12-12T00:33:12.506Z,4.00
2018-12-12T00:35:47.118Z,4.00
2018-12-12T00:38:21.697Z,3.90
2018-12-12T00:40:51.409Z,3.90
2018-12-12T00:43:21.400Z,3.80
2018-12-12T00:45:55.982Z,3.80
2018-12-12T00:48:31.637Z,3.90
2018-12-12T00:51:01.559Z,3.90
2018-12-12T00:53:36.186Z,3.90
2018-12-12T00:56:05.748Z,4.00
2018-12-12T00:58:35.498Z,4.00
2018-12-12T01:01:10.071Z,4.00
2018-12-12T01:03:39.862Z,3.90
2018-12-12T01:06:14.435Z,3.90
2018-12-12T01:08:44.017Z,3.90
2018-12-12T01:11:19.062Z,3.80
2018-12-12T01:13:48.801Z,3.80
2018-12-12T01:16:18.755Z,3.80
2018-12-12T01:18:53.408Z,3.80
2018-12-12T01:21:23.312Z,3.70
2018-12-12T01:23:53.033Z,3.60
2018-12-12T01:26:27.782Z,3.50
2018-12-12T01:28:57.517Z,3.50
2018-12-12T01:31:27.289Z,3.50
2018-12-12T01:33:56.942Z,3.50
2018-12-12T01:36:31.570Z,3.40
2018-12-12T01:39:01.348Z,3.40
2018-12-12T01:41:37.931Z,3.40
2018-12-12T01:44:07.677Z,3.40
2018-12-12T01:46:37.330Z,3.30
2018-12-12T01:49:07.003Z,3.40
2018-12-12T01:51:41.520Z,3.50
2018-12-12T01:54:11.046Z,3.60
2018-12-12T01:56:40.622Z,3.90
2018-12-12T01:59:10.122Z,4.10
2018-12-12T02:01:39.521Z,4.20
2018-12-12T02:04:09.366Z,4.20
2018-12-12T02:06:38.883Z,4.40
2018-12-12T02:09:08.481Z,4.40
2018-12-12T02:11:39.926Z,4.20
2018-12-12T02:14:09.430Z,4.00
2018-12-12T02:16:38.925Z,3.80
2018-12-12T02:19:08.742Z,3.70
2018-12-12T02:21:38.259Z,3.60
2018-12-12T02:24:07.770Z,3.50
2018-12-12T02:26:37.283Z,3.50
2018-12-12T02:29:06.781Z,3.50
2018-12-12T02:31:36.286Z,3.60
2018-12-12T02:34:05.786Z,3.70
2018-12-12T02:36:35.291Z,3.90
2018-12-12T02:39:09.754Z,4.00
2018-12-12T02:41:45.215Z,4.10
2018-12-12T02:44:19.691Z,4.20
2018-12-12T02:46:54.162Z,4.20
2018-12-12T02:49:23.774Z,4.30
2018-12-12T02:51:53.383Z,4.30
2018-12-12T02:54:23.891Z,4.30
2018-12-12T02:56:53.388Z,4.10
2018-12-12T02:59:22.959Z,3.90
2018-12-12T03:01:52.480Z,3.80
2018-12-12T03:04:21.983Z,3.50
2018-12-12T03:06:51.538Z,3.40
2018-12-12T03:09:25.959Z,3.40
2018-12-12T03:11:55.459Z,3.50
2018-12-12T03:14:25.070Z,3.50
2018-12-12T03:16:59.466Z,3.70
2018-12-12T03:19:29.024Z,3.60
2018-12-12T03:21:59.174Z,3.60
2018-12-12T03:24:33.639Z,3.60
2018-12-12T03:27:03.330Z,3.60
2018-12-12T03:29:37.794Z,3.60
2018-12-12T03:32:07.385Z,3.70
2018-12-12T03:34:37.313Z,3.80
2018-12-12T03:37:07.305Z,3.70
2018-12-12T03:39:36.831Z,3.70
2018-12-12T03:42:11.415Z,3.60
2018-12-12T03:44:41.020Z,3.50
2018-12-12T03:47:10.548Z,3.50
2018-12-12T03:49:40.117Z,3.60
2018-12-12T03:52:09.607Z,3.60
2018-12-12T03:54:39.386Z,3.50
2018-12-12T03:57:08.966Z,3.40
2018-12-12T03:59:38.484Z,3.60
2018-12-12T04:02:07.951Z,3.70
2018-12-12T04:04:37.543Z,3.60
2018-12-12T04:07:07.056Z,3.60
2018-12-12T04:09:36.554Z,3.60
2018-12-12T04:12:06.055Z,3.50
2018-12-12T04:14:35.642Z,3.40
2018-12-12T04:17:05.113Z,3.40
2018-12-12T04:19:34.614Z,3.50
2018-12-12T04:22:06.149Z,3.50
2018-12-12T04:24:40.897Z,3.60
2018-12-12T04:27:10.770Z,3.60
2018-12-12T04:29:40.172Z,3.60
2018-12-12T04:32:09.747Z,3.60
2018-12-12T04:34:39.249Z,3.60
2018-12-12T04:37:08.827Z,3.60
2018-12-12T04:39:38.767Z,3.60
2018-12-12T04:42:08.258Z,3.70
2018-12-12T04:44:37.775Z,3.80
2018-12-12T04:47:07.266Z,3.90
2018-12-12T04:49:36.762Z,4.00
2018-12-12T04:52:06.318Z,3.90
2018-12-12T04:54:35.826Z,3.90
2018-12-12T04:57:05.971Z,3.90
2018-12-12T04:59:35.606Z,3.90
2018-12-12T05:02:05.107Z,4.00
2018-12-12T05:04:34.817Z,4.00
2018-12-12T05:07:09.743Z,4.00
2018-12-12T05:09:39.240Z,4.10
2018-12-12T05:12:08.755Z,4.00
2018-12-12T05:14:38.314Z,4.00
2018-12-12T05:17:07.878Z,4.10
2018-12-12T05:19:37.522Z,4.10
2018-12-12T05:22:07.038Z,4.10
2018-12-12T05:24:36.439Z,4.00
2018-12-12T05:27:05.945Z,3.80
2018-12-12T05:29:35.449Z,3.80
2018-12-12T05:32:05.022Z,3.80
2018-12-12T05:34:34.551Z,3.90
2018-12-12T05:37:04.073Z,3.80
2018-12-12T05:39:33.563Z,3.70
2018-12-12T05:42:03.086Z,3.70
2018-12-12T05:44:32.614Z,3.70
2018-12-12T05:47:02.136Z,3.60
2018-12-12T05:49:31.625Z,3.60
2018-12-12T05:52:01.195Z,3.60
2018-12-12T05:54:30.714Z,3.60
2018-12-12T05:57:00.285Z,3.70
2018-12-12T05:59:29.790Z,3.70
2018-12-12T06:01:59.285Z,3.80
2018-12-12T06:04:33.799Z,3.80
2018-12-12T06:07:03.427Z,3.80
2018-12-12T06:09:33.035Z,3.90
2018-12-12T06:12:03.254Z,4.00
2018-12-12T06:14:32.746Z,3.90
2018-12-12T06:17:07.286Z,3.90
2018-12-12T06:19:36.784Z,3.90
2018-12-12T06:22:06.678Z,3.90
2018-12-12T06:24:36.481Z,3.90
2018-12-12T06:27:10.899Z,3.90
2018-12-12T06:29:40.451Z,3.90
2018-12-12T06:32:11.009Z,4.00
2018-12-12T06:34:41.205Z,4.10
2018-12-12T06:37:11.089Z,4.20
2018-12-12T06:39:40.642Z,4.40
2018-12-12T06:42:10.149Z,4.40
2018-12-12T06:44:39.658Z,4.50
2018-12-12T06:47:09.190Z,4.50
2018-12-12T06:49:38.724Z,4.60
2018-12-12T06:52:13.106Z,4.40
2018-12-12T06:54:42.622Z,4.30
2018-12-12T06:57:12.129Z,4.20
2018-12-12T06:59:41.750Z,4.00
2018-12-12T07:02:11.245Z,3.90
2018-12-12T07:04:40.758Z,3.80
2018-12-12T07:07:10.351Z,3.80
2018-12-12T07:09:39.962Z,3.70
2018-12-12T07:12:09.693Z,3.70
2018-12-12T07:14:44.262Z,3.70
2018-12-12T07:17:18.812Z,4.00
2018-12-12T07:19:48.264Z,4.30
2018-12-12T07:22:17.825Z,4.40
2018-12-12T07:24:47.379Z,4.60
2018-12-12T07:27:17.414Z,4.70
2018-12-12T07:29:46.998Z,4.50
2018-12-12T07:32:16.662Z,4.50
2018-12-12T07:34:51.094Z,4.30
2018-12-12T07:37:20.673Z,4.20
2018-12-12T07:39:50.162Z,4.10
2018-12-12T07:42:24.661Z,4.10
2018-12-12T07:45:14.774Z,4.00
2018-12-12T07:47:51.166Z,4.30
2018-12-12T07:50:47.801Z,4.40
2018-12-12T07:53:35.050Z,4.40
2018-12-12T07:56:04.766Z,4.40
2018-12-12T07:58:34.351Z,4.50
2018-12-12T08:01:04.150Z,4.60
2018-12-12T08:03:33.576Z,4.60
2018-12-12T08:06:03.139Z,4.70
2018-12-12T08:08:32.773Z,4.90
2018-12-12T08:11:02.249Z,5.20
2018-12-12T08:13:31.821Z,5.40
2018-12-12T08:16:01.823Z,5.60
2018-12-12T08:18:31.837Z,5.60
2018-12-12T08:21:01.382Z,5.60
2018-12-12T08:23:31.228Z,5.60
2018-12-12T08:26:00.830Z,5.60
2018-12-12T08:28:30.378Z,5.70
2018-12-12T08:31:00.470Z,5.70
2018-12-12T08:33:29.981Z,5.60
2018-12-12T08:35:59.579Z,5.60
2018-12-12T08:38:29.064Z,5.60
2018-12-12T08:40:58.817Z,5.60
2018-12-12T08:43:28.317Z,5.60
2018-12-12T08:45:57.846Z,5.50
2018-12-12T08:48:27.398Z,5.50
2018-12-12T08:50:56.900Z,5.50
2018-12-12T08:53:26.418Z,5.60
2018-12-12T08:55:56.046Z,5.70
2018-12-12T08:58:25.570Z,5.70
2018-12-12T09:00:55.208Z,5.70
2018-12-12T09:03:24.782Z,5.70
2018-12-12T09:05:54.292Z,5.80
2018-12-12T09:08:23.816Z,5.90
2018-12-12T09:10:53.429Z,6.00
2018-12-12T09:13:22.993Z,5.90
2018-12-12T09:15:52.565Z,5.80
2018-12-12T09:18:22.383Z,5.90
2018-12-12T09:20:51.934Z,5.90
2018-12-12T09:23:26.343Z,6.10
2018-12-12T09:25:55.870Z,6.10
2018-12-12T09:28:25.376Z,6.20
2018-12-12T09:30:56.750Z,6.30
2018-12-12T09:33:28.193Z,6.20
2018-12-12T09:36:04.725Z,6.10
2018-12-12T09:38:34.226Z,6.10
2018-12-12T09:41:03.681Z,6.20
2018-12-12T09:43:33.451Z,6.30
2018-12-12T09:46:03.126Z,6.10
2018-12-12T09:48:33.054Z,6.10
2018-12-12T09:51:07.629Z,6.20
2018-12-12T09:53:39.211Z,6.30
2018-12-12T09:56:08.821Z,6.20
2018-12-12T09:58:38.371Z,6.10
2018-12-12T10:01:12.937Z,6.20
2018-12-12T10:03:47.364Z,6.20
2018-12-12T10:06:16.959Z,6.10
2018-12-12T10:08:51.402Z,6.10
2018-12-12T10:11:20.934Z,5.90
2018-12-12T10:13:50.589Z,5.90
2018-12-12T10:16:20.018Z,6.00
2018-12-12T10:18:49.525Z,6.10
2018-12-12T10:21:19.086Z,6.20
2018-12-12T10:23:53.499Z,6.30
2018-12-12T10:26:23.201Z,6.30
2018-12-12T10:28:52.937Z,6.40
2018-12-12T10:31:27.546Z,6.40
2018-12-12T10:33:57.107Z,6.40
2018-12-12T10:36:26.620Z,6.50
2018-12-12T10:38:56.210Z,6.40
2018-12-12T10:41:25.630Z,6.50
2018-12-12T10:43:55.216Z,6.50
2018-12-12T10:46:24.734Z,6.50
2018-12-12T10:48:59.261Z,6.40
2018-12-12T10:51:28.773Z,6.40
2018-12-12T10:53:58.278Z,6.50
2018-12-12T10:56:32.830Z,6.50
2018-12-12T10:59:02.407Z,6.60
2018-12-12T11:01:37.375Z,6.80
2018-12-12T11:04:06.951Z,6.80
2018-12-12T11:06:36.658Z,6.80
2018-12-12T11:09:06.633Z,6.80
2018-12-12T11:11:38.095Z,6.90
2018-12-12T11:14:12.522Z,7.00
2018-12-12T11:16:46.983Z,7.10
2018-12-12T11:19:16.546Z,6.80
2018-12-12T11:21:50.985Z,6.40
2018-12-12T11:24:20.417Z,6.20
2018-12-12T11:26:54.858Z,6.30
2018-12-12T11:29:24.383Z,6.40
2018-12-12T11:31:53.975Z,6.60
2018-12-12T11:34:23.613Z,6.90
2018-12-12T11:36:53.550Z,7.10
2018-12-12T11:39:23.078Z,7.20
2018-12-12T11:41:52.595Z,7.20
2018-12-12T11:44:22.154Z,7.30
2018-12-12T11:46:51.747Z,7.30
2018-12-12T11:49:21.310Z,7.30
2018-12-12T11:51:56.029Z,7.20
2018-12-12T11:54:25.701Z,7.20
2018-12-12T11:56:55.453Z,7.30
2018-12-12T11:59:25.015Z,7.20
2018-12-12T12:01:59.431Z,7.10
2018-12-12T12:04:29.234Z,6.90
2018-12-12T12:06:59.313Z,7.00
2018-12-12T12:09:33.743Z,7.00
2018-12-12T12:12:03.797Z,6.90
2018-12-12T12:14:35.373Z,6.90
2018-12-12T12:17:04.886Z,7.00
2018-12-12T12:19:34.394Z,7.10
2018-12-12T12:22:03.810Z,7.10
2018-12-12T12:24:33.367Z,7.20
2018-12-12T12:27:02.843Z,7.20
2018-12-12T12:29:32.359Z,7.10
2018-12-12T12:32:01.861Z,7.10
2018-12-12T12:34:31.397Z,7.20
2018-12-12T12:37:01.058Z,7.40
2018-12-12T12:39:30.579Z,7.40
2018-12-12T12:42:00.094Z,7.20
2018-12-12T12:44:29.634Z,7.20
2018-12-12T12:46:59.220Z,7.20
2018-12-12T12:49:28.740Z,7.20
2018-12-12T12:51:58.309Z,7.20
2018-12-12T12:54:27.838Z,7.20
2018-12-12T12:57:02.250Z,7.20
2018-12-12T12:59:31.863Z,7.30
2018-12-12T13:02:01.489Z,7.20
2018-12-12T13:04:31.104Z,7.30
2018-12-12T13:07:00.709Z,7.30
2018-12-12T13:09:30.238Z,7.10
2018-12-12T13:11:59.916Z,7.00
2018-12-12T13:14:29.506Z,6.90
2018-12-12T13:17:04.281Z,6.80
2018-12-12T13:19:38.713Z,6.80
2018-12-12T13:22:08.235Z,6.80
2018-12-12T13:24:37.996Z,6.90
2018-12-12T13:27:07.508Z,6.90
2018-12-12T13:29:36.979Z,6.90
2018-12-12T13:32:06.501Z,6.60
2018-12-12T13:34:36.030Z,6.60
2018-12-12T13:37:10.450Z,6.70
2018-12-12T13:39:40.485Z,6.90
2018-12-12T13:42:10.014Z,7.00
2018-12-12T13:44:44.445Z,7.00
2018-12-12T13:47:17.287Z,7.00
2018-12-12T13:49:50.338Z,7.20
2018-12-12T13:52:19.853Z,7.30
2018-12-12T13:54:49.364Z,7.30
2018-12-12T13:57:19.106Z,7.30
2018-12-12T13:59:49.262Z,7.20
2018-12-12T14:02:23.763Z,7.10
2018-12-12T14:04:53.320Z,7.10
2018-12-12T14:07:22.917Z,7.10
2018-12-12T14:09:53.203Z,7.10
2018-12-12T14:12:22.770Z,7.10
2018-12-12T14:14:52.358Z,7.10
2018-12-12T14:17:21.939Z,7.10
2018-12-12T14:19:51.401Z,7.10
2018-12-12T14:22:21.066Z,7.00
2018-12-12T14:24:50.590Z,7.10
2018-12-12T14:27:20.002Z,7.10
2018-12-12T14:29:49.538Z,7.10
2018-12-12T14:32:19.010Z,7.10
2018-12-12T14:34:48.537Z,7.00
2018-12-12T14:37:17.945Z,7.00
2018-12-12T14:39:47.459Z,6.90
2018-12-12T14:42:17.089Z,6.90
2018-12-12T14:44:46.695Z,6.90
2018-12-12T14:47:16.217Z,6.90
2018-12-12T14:49:50.726Z,6.90
2018-12-12T14:52:20.331Z,6.90
2018-12-12T14:54:54.765Z,7.00
2018-12-12T14:57:24.536Z,6.90
2018-12-12T14:59:54.193Z,6.80
2018-12-12T15:02:23.730Z,6.90
2018-12-12T15:04:58.197Z,6.80
2018-12-12T15:07:28.147Z,6.90
2018-12-12T15:09:57.730Z,6.90
2018-12-12T15:12:27.248Z,6.90
2018-12-12T15:14:57.418Z,6.90
2018-12-12T15:17:31.838Z,6.90
2018-12-12T15:20:01.495Z,6.80
2018-12-12T15:22:31.186Z,6.80
2018-12-12T15:25:00.704Z,6.80
2018-12-12T15:27:30.295Z,6.90
2018-12-12T15:29:59.810Z,6.90
2018-12-12T15:32:29.363Z,6.90
2018-12-12T15:34:58.970Z,6.80
2018-12-12T15:37:28.500Z,6.80
2018-12-12T15:39:59.142Z,6.70
2018-12-12T15:42:28.742Z,6.50
2018-12-12T15:44:58.278Z,6.50
2018-12-12T15:47:27.812Z,6.40
2018-12-12T15:49:57.470Z,6.50
2018-12-12T15:52:26.997Z,6.60
2018-12-12T15:54:56.632Z,6.50
2018-12-12T15:57:26.183Z,6.50
2018-12-12T15:59:55.950Z,6.50
2018-12-12T16:02:25.510Z,6.50
2018-12-12T16:04:55.027Z,6.40
2018-12-12T16:07:24.639Z,6.40
2018-12-12T16:09:54.186Z,6.40
2018-12-12T16:12:29.001Z,6.40
2018-12-12T16:14:58.426Z,6.40
2018-12-12T16:17:28.007Z,6.40
2018-12-12T16:19:57.571Z,6.50
2018-12-12T16:22:27.086Z,6.40
2018-12-12T16:24:56.589Z,6.50
2018-12-12T16:27:26.230Z,6.40
2018-12-12T16:29:55.865Z,6.40
2018-12-12T16:32:25.402Z,6.50
2018-12-12T16:34:55.824Z,6.50
2018-12-12T16:37:25.554Z,6.40
2018-12-12T16:40:00.102Z,6.40
2018-12-12T16:42:29.779Z,6.40
2018-12-12T16:45:01.222Z,6.30
2018-12-12T16:47:48.066Z,6.40
2018-12-12T16:50:22.578Z,6.40
2018-12-12T16:52:52.118Z,6.30
2018-12-12T16:55:22.226Z,6.40
2018-12-12T16:57:56.877Z,6.50
2018-12-12T17:00:31.315Z,6.50
2018-12-12T17:03:00.965Z,6.50
2018-12-12T17:05:30.882Z,6.50
2018-12-12T17:08:00.348Z,6.40
2018-12-12T17:10:34.898Z,6.40
2018-12-12T17:13:09.455Z,6.40
2018-12-12T17:15:44.066Z,6.50
2018-12-12T17:18:19.161Z,6.40
2018-12-12T17:20:49.917Z,6.30
2018-12-12T17:23:20.085Z,6.20
2018-12-12T17:25:49.629Z,6.20
2018-12-12T17:28:19.818Z,6.20
2018-12-12T17:30:49.267Z,6.10
2018-12-12T17:33:25.742Z,6.10
2018-12-12T17:35:55.334Z,6.10
2018-12-12T17:38:25.047Z,6.20
2018-12-12T17:40:55.968Z,6.30
2018-12-12T17:43:25.427Z,6.30
2018-12-12T17:45:55.007Z,6.30
2018-12-12T17:48:24.594Z,6.30
2018-12-12T17:50:54.282Z,6.30
2018-12-12T17:53:23.746Z,6.40
2018-12-12T17:55:53.418Z,6.50
2018-12-12T17:58:28.034Z,6.40
2018-12-12T18:00:57.779Z,6.30
2018-12-12T18:03:29.293Z,6.30
2018-12-12T18:06:15.682Z,6.40
2018-12-12T18:08:45.305Z,6.20
2018-12-12T18:11:20.046Z,6.30
2018-12-12T18:13:49.630Z,6.30
2018-12-12T18:16:26.206Z,6.20
2018-12-12T18:18:55.726Z,6.20
2018-12-12T18:21:25.408Z,6.20
2018-12-12T18:23:56.977Z,6.20
2018-12-12T18:26:28.172Z,6.10
2018-12-12T18:28:57.649Z,6.20
2018-12-12T18:31:27.350Z,6.30
2018-12-12T18:34:13.657Z,6.30
2018-12-12T18:36:43.270Z,6.30
2018-12-12T18:39:12.841Z,6.20
2018-12-12T18:41:43.966Z,6.20
2018-12-12T18:44:36.958Z,6.20
2018-12-12T18:47:06.246Z,6.10
2018-12-12T18:49:35.785Z,6.20
2018-12-12T18:52:07.326Z,6.20
2018-12-12T18:54:37.034Z,6.30
2018-12-12T18:57:08.582Z,6.30
2018-12-12T18:59:38.215Z,6.30
2018-12-12T19:02:07.910Z,6.20
2018-12-12T19:04:37.490Z,6.20
2018-12-12T19:07:07.009Z,6.10
2018-12-12T19:09:36.605Z,6.10
2018-12-12T19:12:06.550Z,6.20
2018-12-12T19:14:45.281Z,6.10
2018-12-12T19:17:20.570Z,6.10
2018-12-12T19:19:50.103Z,6.00
2018-12-12T19:22:19.709Z,6.00
2018-12-12T19:24:49.214Z,6.00
2018-12-12T19:27:18.874Z,6.10
2018-12-12T19:29:48.478Z,6.10
2018-12-12T19:32:18.830Z,6.10
2018-12-12T19:34:49.945Z,6.10
2018-12-12T19:37:20.022Z,6.10
2018-12-12T19:39:50.506Z,6.20
2018-12-12T19:42:23.417Z,6.20
2018-12-12T19:44:53.566Z,6.10
2018-12-12T19:47:28.467Z,6.00
2018-12-12T19:49:59.071Z,5.70
2018-12-12T19:52:39.861Z,5.70
2018-12-12T19:55:09.886Z,5.70
2018-12-12T19:57:46.433Z,5.60
2018-12-12T20:00:20.934Z,5.60
2018-12-12T20:02:55.526Z,5.60
2018-12-12T20:05:25.034Z,5.70
2018-12-12T20:07:56.321Z,5.70
2018-12-12T20:10:30.819Z,5.50
2018-12-12T20:13:00.496Z,5.50
2018-12-12T20:15:40.479Z,5.20
2018-12-12T20:18:10.014Z,5.20
2018-12-12T20:20:39.700Z,5.00
2018-12-12T20:23:14.683Z,4.70
2018-12-12T20:25:44.222Z,4.50
2018-12-12T20:28:13.872Z,4.30
2018-12-12T20:30:44.001Z,4.20
2018-12-12T20:33:13.539Z,4.20
2018-12-12T20:35:48.021Z,4.30
2018-12-12T20:38:15.978Z,4.50
2018-12-12T20:40:50.782Z,4.60
2018-12-12T20:43:20.342Z,4.50
2018-12-12T20:45:51.402Z,4.40
2018-12-12T20:48:22.963Z,4.30
2018-12-12T20:50:53.098Z,4.10
2018-12-12T20:53:22.654Z,3.90
2018-12-12T20:55:57.231Z,3.70
2018-12-12T20:58:26.998Z,3.50
2018-12-12T21:00:57.242Z,3.50
2018-12-12T21:03:37.855Z,3.50
2018-12-12T21:06:14.707Z,3.50
2018-12-12T21:08:51.970Z,3.30
2018-12-12T21:11:21.577Z,3.30
2018-12-12T21:13:51.034Z,3.30
2018-12-12T21:16:20.652Z,3.30
2018-12-12T21:18:50.181Z,3.10
2018-12-12T21:21:19.707Z,3.30
2018-12-12T21:23:49.209Z,3.50
2018-12-12T21:26:20.726Z,3.60
2018-12-12T21:28:56.186Z,3.70
2018-12-12T21:31:27.245Z,3.80
2018-12-12T21:33:56.781Z,3.80
2018-12-12T21:36:26.574Z,3.80
2018-12-12T21:38:56.028Z,3.80
2018-12-12T21:41:25.486Z,3.60
2018-12-12T21:43:54.997Z,3.50
2018-12-12T21:46:25.871Z,3.50
2018-12-12T21:48:55.397Z,3.50
2018-12-12T21:51:26.108Z,3.70
2018-12-12T21:53:56.483Z,3.80
2018-12-12T21:56:31.097Z,3.90
2018-12-12T21:59:05.710Z,4.00
2018-12-12T22:01:35.274Z,3.90
2018-12-12T22:04:04.817Z,3.90
2018-12-12T22:06:35.862Z,3.90
2018-12-12T22:09:08.362Z,3.90
2018-12-12T22:11:44.893Z,4.10
2018-12-12T22:14:17.930Z,4.20
2018-12-12T22:16:48.092Z,4.40
2018-12-12T22:19:22.469Z,4.30
2018-12-12T22:21:52.098Z,4.40
2018-12-12T22:24:21.598Z,4.50
2018-12-12T22:26:51.748Z,4.50
2018-12-12T22:29:21.274Z,4.40
2018-12-12T22:31:55.785Z,4.40
2018-12-12T22:34:25.400Z,4.40
2018-12-12T22:36:59.856Z,4.50
2018-12-12T22:39:29.437Z,4.40
2018-12-12T22:42:04.110Z,4.30
2018-12-12T22:44:33.706Z,4.30
2018-12-12T22:47:03.262Z,4.30
2018-12-12T22:49:33.114Z,4.30
2018-12-12T22:52:02.815Z,4.40
2018-12-12T22:54:32.241Z,4.40
2018-12-12T22:57:01.733Z,4.30
2018-12-12T22:59:37.205Z,4.20
2018-12-12T23:02:11.978Z,4.20
2018-12-12T23:04:41.555Z,4.10
2018-12-12T23:07:11.141Z,4.10
2018-12-12T23:09:40.550Z,4.00
2018-12-12T23:12:14.992Z,4.00
2018-12-12T23:14:44.589Z,3.90
2018-12-12T23:17:14.130Z,3.90
2018-12-12T23:19:43.647Z,3.90
2018-12-12T23:22:13.725Z,3.90
2018-12-12T23:24:43.282Z,3.80
2018-12-12T23:27:12.886Z,3.70
2018-12-12T23:29:42.430Z,3.60
2018-12-12T23:32:12.082Z,3.60
2018-12-12T23:34:41.578Z,3.40
2018-12-12T23:37:11.074Z,3.30
2018-12-12T23:39:40.490Z,3.10
2018-12-12T23:42:14.975Z,2.90
2018-12-12T23:44:44.496Z,2.80
2018-12-12T23:47:18.906Z,2.70
2018-12-12T23:49:48.430Z,2.90
2018-12-12T23:52:18.990Z,3.00
2018-12-12T23:54:48.513Z,3.00
2018-12-12T23:57:18.062Z,3.00
2018-12-12T23:59:47.562Z,2.90
